Terminal Aerodrome Forecast
Issued by NWS Mt. Holly, NJ

Current Version | Previous Version | Text Only | Print | Product List | Glossary On
Versions: 1 2 3 4 5 6 7 8 9 10 11 12 13 14 15 16 17 18 19 20
000
FTUS41 KPHI 311700
TAFABE
TAF
KABE 311730Z 3118/0118 30012G20KT P6SM FEW040
     FM312100 30010KT P6SM SKC
     FM010400 30005KT P6SM SCT100 BKN250
     FM010900 VRB03KT P6SM BKN100
     FM011600 25005KT P6SM SCT025 OVC040=

USA.gov is the U.S. government's official web portal to all federal, state and local government web resources and services.